createdAt,value
2023-03-05T00:01:09.867Z,75.39
2023-03-05T00:03:37.220Z,75.04
2023-03-05T00:06:04.204Z,75.17
2023-03-05T00:08:31.920Z,75.16
2023-03-05T00:11:00.302Z,74.98
2023-03-05T00:13:27.164Z,75.47
2023-03-05T00:15:54.150Z,75.75
2023-03-05T00:18:21.869Z,75.33
2023-03-05T00:20:49.364Z,75.34
2023-03-05T00:23:16.705Z,75.69
2023-03-05T00:25:43.655Z,75.58
2023-03-05T00:28:10.639Z,75.63
2023-03-05T00:30:37.293Z,75.65
2023-03-05T00:33:04.258Z,75.76
2023-03-05T00:35:31.126Z,75.44
2023-03-05T00:37:58.275Z,75.97
2023-03-05T00:40:25.088Z,75.88
2023-03-05T00:42:51.978Z,75.78
2023-03-05T00:45:18.744Z,76.08
2023-03-05T00:47:45.427Z,75.63
2023-03-05T00:50:12.291Z,75.96
2023-03-05T00:52:39.138Z,75.83
2023-03-05T00:55:06.293Z,75.74
2023-03-05T00:57:33.016Z,75.63
2023-03-05T00:59:59.738Z,76.08
2023-03-05T01:02:26.607Z,76.08
2023-03-05T01:04:53.428Z,75.75
2023-03-05T01:07:20.128Z,76.00
2023-03-05T01:09:47.012Z,75.77
2023-03-05T01:12:13.677Z,75.97
2023-03-05T01:14:40.381Z,75.98
2023-03-05T01:17:08.059Z,76.01
2023-03-05T01:19:34.938Z,75.98
2023-03-05T01:22:01.577Z,75.88
2023-03-05T01:24:28.340Z,76.13
2023-03-05T01:26:55.195Z,75.98
2023-03-05T01:29:21.881Z,76.37
2023-03-05T01:31:48.617Z,76.31
2023-03-05T01:34:15.985Z,76.54
2023-03-05T01:36:42.691Z,76.03
2023-03-05T01:39:09.596Z,76.31
2023-03-05T01:41:36.557Z,76.30
2023-03-05T01:44:03.465Z,75.91
2023-03-05T01:46:38.918Z,76.18
2023-03-05T01:49:27.855Z,76.36
2023-03-05T01:52:03.304Z,76.03
2023-03-05T01:54:35.284Z,76.29
2023-03-05T01:57:09.712Z,76.31
2023-03-05T01:59:39.270Z,76.27
2023-03-05T02:02:08.015Z,76.39
2023-03-05T02:04:43.312Z,76.56
2023-03-05T02:07:11.742Z,76.70
2023-03-05T02:09:40.320Z,76.38
2023-03-05T02:12:08.285Z,76.33
2023-03-05T02:14:35.903Z,76.58
2023-03-05T02:17:02.828Z,76.71
2023-03-05T02:19:29.597Z,76.77
2023-03-05T02:21:56.369Z,76.89
2023-03-05T02:24:36.590Z,76.94
2023-03-05T02:27:05.007Z,76.58
2023-03-05T02:29:33.801Z,77.00
2023-03-05T02:32:01.829Z,77.18
2023-03-05T02:34:28.624Z,77.27
2023-03-05T02:36:55.643Z,76.76
2023-03-05T02:39:22.669Z,76.78
2023-03-05T02:41:49.504Z,77.25
2023-03-05T02:44:16.201Z,77.17
2023-03-05T02:46:43.124Z,77.38
2023-03-05T02:49:09.959Z,77.32
2023-03-05T02:51:36.637Z,77.13
2023-03-05T02:54:03.563Z,76.99
2023-03-05T02:56:30.250Z,77.32
2023-03-05T02:58:56.955Z,77.53
2023-03-05T03:01:23.854Z,77.08
2023-03-05T03:03:50.548Z,77.13
2023-03-05T03:06:17.185Z,77.05
2023-03-05T03:08:43.955Z,77.32
2023-03-05T03:11:14.755Z,77.37
2023-03-05T03:13:41.987Z,77.46
2023-03-05T03:16:13.062Z,77.34
2023-03-05T03:18:39.965Z,77.24
2023-03-05T03:21:07.085Z,77.24
2023-03-05T03:23:34.536Z,77.56
2023-03-05T03:26:01.272Z,77.60
2023-03-05T03:28:27.964Z,77.43
2023-03-05T03:30:54.825Z,77.68
2023-03-05T03:33:21.545Z,77.52
2023-03-05T03:35:48.249Z,77.55
2023-03-05T03:38:15.216Z,77.55
2023-03-05T03:40:42.456Z,77.58
2023-03-05T03:43:09.417Z,77.79
2023-03-05T03:45:39.905Z,77.65
2023-03-05T03:48:06.543Z,77.88
2023-03-05T03:50:33.275Z,77.65
2023-03-05T03:53:00.124Z,77.51
2023-03-05T03:55:26.939Z,77.54
2023-03-05T03:57:53.697Z,77.54
2023-03-05T04:00:21.045Z,77.93
2023-03-05T04:02:47.900Z,78.02
2023-03-05T04:05:14.643Z,77.61
2023-03-05T04:07:41.547Z,78.14
2023-03-05T04:10:09.045Z,77.89
2023-03-05T04:12:35.748Z,78.07
2023-03-05T04:15:02.532Z,78.35
2023-03-05T04:17:29.177Z,78.21
2023-03-05T04:19:55.849Z,78.42
2023-03-05T04:22:22.895Z,78.02
2023-03-05T04:24:49.893Z,78.03
2023-03-05T04:27:16.538Z,78.74
2023-03-05T04:29:43.320Z,78.42
2023-03-05T04:32:10.483Z,78.19
2023-03-05T04:34:38.069Z,78.29
2023-03-05T04:37:04.850Z,78.34
2023-03-05T04:39:31.845Z,78.29
2023-03-05T04:41:58.533Z,78.15
2023-03-05T04:44:26.144Z,78.57
2023-03-05T04:46:53.009Z,78.42
2023-03-05T04:49:19.649Z,78.40
2023-03-05T04:51:46.447Z,78.51
2023-03-05T04:54:13.091Z,78.10
2023-03-05T04:56:39.797Z,78.19
2023-03-05T04:59:06.632Z,78.26
2023-03-05T05:01:35.215Z,78.64
2023-03-05T05:04:02.252Z,78.29
2023-03-05T05:06:29.149Z,78.25
2023-03-05T05:08:55.848Z,78.59
2023-03-05T05:11:22.532Z,78.39
2023-03-05T05:13:49.384Z,78.74
2023-03-05T05:16:16.337Z,78.22
2023-03-05T05:18:43.086Z,78.37
2023-03-05T05:21:12.083Z,78.33
2023-03-05T05:23:39.422Z,78.66
2023-03-05T05:26:07.865Z,78.77
2023-03-05T05:28:35.837Z,78.56
2023-03-05T05:31:07.525Z,78.35
2023-03-05T05:33:34.242Z,78.91
2023-03-05T05:36:03.753Z,78.67
2023-03-05T05:38:30.518Z,78.88
2023-03-05T05:41:11.964Z,78.96
2023-03-05T05:43:39.219Z,78.86
2023-03-05T05:46:08.998Z,78.45
2023-03-05T05:48:36.607Z,78.51
2023-03-05T05:51:12.515Z,78.91
2023-03-05T05:53:39.769Z,78.78
2023-03-05T05:56:09.169Z,78.71
2023-03-05T05:58:37.965Z,78.52
2023-03-05T06:01:16.681Z,78.68
2023-03-05T06:03:43.723Z,78.41
2023-03-05T06:06:12.100Z,78.47
2023-03-05T06:08:39.433Z,78.61
2023-03-05T06:11:07.196Z,78.44
2023-03-05T06:13:34.446Z,78.30
2023-03-05T06:16:05.221Z,78.48
2023-03-05T06:18:33.893Z,78.80
2023-03-05T06:21:05.352Z,78.28
2023-03-05T06:23:32.729Z,78.88
2023-03-05T06:26:01.084Z,78.53
2023-03-05T06:28:28.982Z,78.86
2023-03-05T06:31:21.964Z,78.97
2023-03-05T06:33:49.876Z,78.90
2023-03-05T06:36:19.027Z,78.79
2023-03-05T06:38:48.370Z,78.70
2023-03-05T06:41:18.457Z,78.94
2023-03-05T06:43:47.759Z,78.58
2023-03-05T06:46:19.935Z,78.62
2023-03-05T06:48:47.529Z,78.67
2023-03-05T06:51:23.380Z,78.99
2023-03-05T06:53:51.160Z,78.56
2023-03-05T06:56:19.052Z,79.08
2023-03-05T06:58:48.295Z,78.86
2023-03-05T07:01:15.823Z,78.75
2023-03-05T07:03:42.921Z,79.24
2023-03-05T07:06:13.098Z,79.06
2023-03-05T07:08:39.998Z,79.29
2023-03-05T07:11:11.892Z,79.00
2023-03-05T07:13:38.776Z,78.77
2023-03-05T07:16:10.832Z,79.25
2023-03-05T07:18:37.593Z,78.86
2023-03-05T07:21:06.330Z,78.99
2023-03-05T07:23:34.269Z,78.62
2023-03-05T07:26:02.591Z,78.74
2023-03-05T07:28:29.387Z,78.65
2023-03-05T07:31:01.608Z,78.90
2023-03-05T07:33:28.903Z,78.94
2023-03-05T07:35:56.867Z,78.88
2023-03-05T07:38:23.851Z,78.98
2023-03-05T07:40:51.002Z,78.67
2023-03-05T07:43:18.095Z,78.99
2023-03-05T07:45:46.552Z,78.67
2023-03-05T07:48:17.102Z,78.38
2023-03-05T07:50:44.045Z,78.77
2023-03-05T07:53:11.239Z,78.77
2023-03-05T07:55:45.692Z,78.39
2023-03-05T07:58:13.752Z,78.60
2023-03-05T08:00:41.078Z,78.50
2023-03-05T08:03:08.242Z,78.55
2023-03-05T08:05:35.072Z,78.18
2023-03-05T08:08:01.724Z,78.04
2023-03-05T08:10:28.516Z,77.96
2023-03-05T08:12:55.389Z,77.97
2023-03-05T08:15:22.237Z,77.96
2023-03-05T08:17:48.973Z,77.70
2023-03-05T08:20:15.809Z,77.55
2023-03-05T08:22:42.678Z,77.51
2023-03-05T08:25:09.706Z,77.45
2023-03-05T08:27:45.100Z,77.66
2023-03-05T08:30:18.484Z,77.28
2023-03-05T08:32:45.400Z,77.41
2023-03-05T08:35:12.407Z,77.40
2023-03-05T08:37:39.225Z,77.12
2023-03-05T08:40:06.757Z,77.07
2023-03-05T08:42:33.508Z,76.99
2023-03-05T08:45:00.214Z,76.80
2023-03-05T08:47:27.535Z,76.44
2023-03-05T08:49:58.459Z,76.48
2023-03-05T08:52:27.474Z,76.46
2023-03-05T08:54:54.386Z,76.13
2023-03-05T08:57:21.239Z,75.85
2023-03-05T08:59:48.559Z,75.79
2023-03-05T09:02:15.320Z,75.30
2023-03-05T09:04:42.067Z,75.31
2023-03-05T09:07:08.991Z,75.62
2023-03-05T09:09:36.588Z,74.89
2023-03-05T09:12:03.512Z,74.82
2023-03-05T09:14:30.423Z,75.07
2023-03-05T09:16:57.869Z,74.85
2023-03-05T09:19:25.022Z,74.74
2023-03-05T09:21:52.168Z,74.50
2023-03-05T09:24:18.975Z,74.41
2023-03-05T09:26:45.704Z,74.59
2023-03-05T09:29:12.644Z,74.05
2023-03-05T09:31:39.966Z,74.02
2023-03-05T09:34:08.261Z,73.91
2023-03-05T09:36:35.252Z,73.79
2023-03-05T09:39:04.110Z,73.00
2023-03-05T09:41:39.776Z,72.30
2023-03-05T09:44:31.332Z,71.75
2023-03-05T09:47:32.400Z,71.37
2023-03-05T09:50:04.050Z,71.79
2023-03-05T09:52:40.074Z,72.63
2023-03-05T10:13:38.506Z,73.55
2023-03-05T10:16:43.528Z,73.53
2023-03-05T10:19:46.248Z,73.18
2023-03-05T10:22:28.071Z,73.12
2023-03-05T10:25:20.697Z,73.43
2023-03-05T10:27:56.949Z,74.10
2023-03-05T10:30:29.303Z,73.85
2023-03-05T10:33:20.662Z,74.39
2023-03-05T10:36:11.249Z,73.99
2023-03-05T10:38:40.669Z,74.21
2023-03-05T10:41:32.341Z,73.67
2023-03-05T10:44:09.752Z,73.43
2023-03-05T10:46:38.888Z,73.44
2023-03-05T10:49:20.479Z,73.34
2023-03-05T10:52:06.858Z,73.18
2023-03-05T10:54:35.928Z,73.03
2023-03-05T10:57:20.594Z,73.10
2023-03-05T11:00:01.213Z,73.06
2023-03-05T11:02:28.238Z,72.58
2023-03-05T11:04:54.961Z,73.05
2023-03-05T11:07:22.724Z,73.01
2023-03-05T11:10:06.829Z,71.97
2023-03-05T11:12:39.048Z,72.36
2023-03-05T11:15:15.254Z,72.72
2023-03-05T11:18:03.079Z,70.91
2023-03-05T11:20:37.428Z,69.72
2023-03-05T11:23:11.989Z,70.35
2023-03-05T11:26:02.316Z,68.57
2023-03-05T11:28:41.164Z,70.00
2023-03-05T11:31:21.906Z,69.46
2023-03-05T11:34:03.348Z,69.31
2023-03-05T11:36:42.583Z,69.84
2023-03-05T11:39:17.652Z,68.82
2023-03-05T11:41:49.495Z,68.03
2023-03-05T11:44:43.043Z,67.65
2023-03-05T11:47:21.889Z,67.22
2023-03-05T11:49:52.401Z,66.83
2023-03-05T11:52:25.105Z,65.98
2023-03-05T11:55:11.357Z,65.68
2023-03-05T11:58:08.606Z,65.01
2023-03-05T12:00:39.091Z,66.08
2023-03-05T12:03:14.264Z,65.42
2023-03-05T12:05:46.639Z,65.89
2023-03-05T12:08:17.467Z,65.93
2023-03-05T12:10:44.406Z,65.58
2023-03-05T12:13:33.705Z,65.54
2023-03-05T12:16:20.223Z,64.94
2023-03-05T12:18:58.364Z,65.03
2023-03-05T12:21:38.047Z,64.60
2023-03-05T12:24:27.455Z,64.18
2023-03-05T12:27:04.379Z,63.74
2023-03-05T12:29:39.875Z,64.44
2023-03-05T12:32:28.973Z,63.43
2023-03-05T12:35:22.360Z,63.96
2023-03-05T12:37:51.915Z,63.74
2023-03-05T12:40:29.572Z,63.78
2023-03-05T12:42:59.481Z,63.73
2023-03-05T12:45:30.804Z,64.22
2023-03-05T12:47:57.648Z,63.77
2023-03-05T12:50:27.208Z,63.34
2023-03-05T12:52:54.971Z,63.31
2023-03-05T12:55:33.589Z,63.23
2023-03-05T12:58:05.190Z,61.93
2023-03-05T13:00:43.485Z,62.04
2023-03-05T13:03:24.372Z,62.38
2023-03-05T13:05:54.733Z,61.82
2023-03-05T13:08:35.490Z,62.54
2023-03-05T13:11:03.389Z,61.46
2023-03-05T13:13:34.978Z,62.55
2023-03-05T13:16:02.781Z,62.31
2023-03-05T13:18:32.917Z,62.51
2023-03-05T13:21:08.896Z,62.51
2023-03-05T13:23:35.923Z,62.09
2023-03-05T13:26:18.974Z,62.27
2023-03-05T13:29:19.332Z,62.46
2023-03-05T13:32:04.451Z,62.65
2023-03-05T13:34:46.598Z,62.62
2023-03-05T13:37:14.073Z,62.43
2023-03-05T13:39:49.119Z,61.96
2023-03-05T13:42:32.558Z,61.94
2023-03-05T13:45:20.655Z,61.21
2023-03-05T13:47:59.587Z,60.74
2023-03-05T13:50:34.712Z,60.77
2023-03-05T13:53:16.004Z,60.84
2023-03-05T13:55:42.925Z,60.48
2023-03-05T13:58:55.003Z,60.03
2023-03-05T14:01:33.062Z,59.97
2023-03-05T14:04:23.787Z,59.51
2023-03-05T14:07:06.966Z,59.42
2023-03-05T14:09:39.549Z,60.21
2023-03-05T14:12:22.344Z,59.68
2023-03-05T14:14:49.558Z,59.73
2023-03-05T14:17:39.538Z,59.09
2023-03-05T14:20:19.184Z,59.95
2023-03-05T14:22:50.490Z,59.71
2023-03-05T14:25:39.857Z,59.39
2023-03-05T14:28:19.050Z,59.57
2023-03-05T14:30:47.705Z,59.62
2023-03-05T14:33:15.090Z,59.63
2023-03-05T14:35:49.416Z,59.83
2023-03-05T14:38:23.579Z,59.51
2023-03-05T14:40:50.960Z,59.45
2023-03-05T14:43:17.812Z,58.79
2023-03-05T14:45:44.821Z,58.78
2023-03-05T14:48:13.746Z,58.47
2023-03-05T14:50:47.140Z,58.40
2023-03-05T14:53:18.079Z,57.79
2023-03-05T14:55:56.166Z,58.23
2023-03-05T14:58:28.753Z,57.62
2023-03-05T15:00:55.778Z,58.05
2023-03-05T15:03:23.511Z,58.10
2023-03-05T15:05:53.775Z,57.82
2023-03-05T15:08:23.772Z,58.05
2023-03-05T15:10:50.457Z,58.06
2023-03-05T15:13:17.825Z,58.50
2023-03-05T15:15:47.022Z,58.78
2023-03-05T15:18:16.533Z,58.88
2023-03-05T15:20:44.182Z,58.59
2023-03-05T15:23:12.801Z,58.94
2023-03-05T15:25:40.362Z,59.07
2023-03-05T15:28:07.712Z,59.09
2023-03-05T15:30:38.027Z,58.99
2023-03-05T15:33:07.960Z,59.09
2023-03-05T15:35:35.403Z,59.25
2023-03-05T15:38:02.230Z,59.68
2023-03-05T15:40:29.577Z,59.79
2023-03-05T15:42:58.134Z,59.67
2023-03-05T15:45:25.203Z,59.90
2023-03-05T15:47:53.160Z,59.82
2023-03-05T15:50:21.620Z,59.66
2023-03-05T15:52:48.569Z,60.24
2023-03-05T15:55:15.302Z,59.60
2023-03-05T15:57:48.028Z,60.01
2023-03-05T16:00:17.861Z,60.26
2023-03-05T16:02:44.638Z,60.06
2023-03-05T16:05:12.016Z,60.44
2023-03-05T16:07:42.020Z,60.08
2023-03-05T16:10:13.703Z,60.79
2023-03-05T16:12:43.062Z,61.02
2023-03-05T16:15:16.610Z,61.03
2023-03-05T16:17:45.519Z,61.57
2023-03-05T16:20:13.275Z,61.31
2023-03-05T16:22:40.385Z,61.66
2023-03-05T16:25:07.496Z,61.95
2023-03-05T16:27:34.778Z,62.29
2023-03-05T16:30:01.862Z,62.13
2023-03-05T16:32:28.757Z,62.73
2023-03-05T16:34:55.550Z,62.53
2023-03-05T16:37:23.984Z,62.78
2023-03-05T16:39:51.898Z,63.21
2023-03-05T16:42:18.864Z,63.39
2023-03-05T16:44:47.459Z,63.20
2023-03-05T16:47:14.312Z,63.55
2023-03-05T16:49:41.139Z,63.41
2023-03-05T16:52:18.443Z,63.51
2023-03-05T16:54:46.389Z,63.81
2023-03-05T16:57:13.161Z,63.66
2023-03-05T16:59:40.261Z,63.91
2023-03-05T17:02:07.102Z,64.54
2023-03-05T17:04:34.023Z,64.44
2023-03-05T17:07:00.712Z,64.47
2023-03-05T17:09:27.510Z,65.00
2023-03-05T17:11:54.938Z,65.16
2023-03-05T17:14:21.973Z,65.08
2023-03-05T17:16:48.784Z,64.92
2023-03-05T17:19:15.917Z,65.69
2023-03-05T17:21:42.920Z,66.01
2023-03-05T17:24:10.893Z,66.08
2023-03-05T17:26:38.212Z,65.91
2023-03-05T17:29:05.627Z,66.29
2023-03-05T17:31:32.459Z,66.62
2023-03-05T17:33:59.440Z,67.22
2023-03-05T17:36:26.531Z,67.09
2023-03-05T17:38:54.144Z,67.23
2023-03-05T17:41:22.051Z,67.44
2023-03-05T17:43:48.900Z,67.54
2023-03-05T17:46:16.191Z,67.67
2023-03-05T17:48:43.111Z,67.78
2023-03-05T17:51:12.936Z,67.77
2023-03-05T17:53:40.333Z,67.91
2023-03-05T17:56:11.455Z,68.24
2023-03-05T17:58:39.183Z,68.16
2023-03-05T18:01:06.992Z,68.38
2023-03-05T18:03:34.144Z,68.36
2023-03-05T18:06:00.943Z,68.50
2023-03-05T18:08:27.929Z,69.00
2023-03-05T18:10:54.868Z,69.07
2023-03-05T18:13:21.940Z,68.81
2023-03-05T18:15:48.705Z,68.95
2023-03-05T18:18:16.792Z,68.90
2023-03-05T18:20:44.402Z,69.08
2023-03-05T18:23:15.296Z,69.45
2023-03-05T18:25:42.582Z,69.16
2023-03-05T18:28:11.805Z,69.67
2023-03-05T18:30:40.713Z,69.17
2023-03-05T18:33:09.096Z,69.36
2023-03-05T18:35:36.853Z,69.41
2023-03-05T18:38:03.517Z,69.48
2023-03-05T18:40:32.804Z,69.52
2023-03-05T18:43:01.443Z,69.64
2023-03-05T18:45:29.056Z,70.05
2023-03-05T18:47:56.886Z,69.93
2023-03-05T18:50:26.338Z,70.29
2023-03-05T18:52:53.801Z,70.30
2023-03-05T18:55:27.460Z,70.44
2023-03-05T18:57:54.719Z,69.94
2023-03-05T19:00:28.021Z,70.71
2023-03-05T19:02:55.690Z,70.25
2023-03-05T19:05:23.153Z,70.40
2023-03-05T19:07:49.804Z,70.80
2023-03-05T19:10:17.732Z,70.76
2023-03-05T19:13:05.750Z,70.71
2023-03-05T19:15:32.998Z,71.03
2023-03-05T19:17:59.778Z,71.11
2023-03-05T19:20:26.538Z,70.87
2023-03-05T19:22:55.823Z,71.30
2023-03-05T19:25:22.734Z,70.96
2023-03-05T19:27:49.585Z,71.50
2023-03-05T19:30:16.681Z,71.19
2023-03-05T19:32:43.554Z,71.52
2023-03-05T19:35:14.919Z,71.67
2023-03-05T19:37:41.894Z,71.60
2023-03-05T19:40:09.448Z,71.53
2023-03-05T19:42:38.104Z,71.25
2023-03-05T19:45:06.452Z,71.60
2023-03-05T19:47:33.112Z,71.93
2023-03-05T19:49:59.847Z,72.00
2023-03-05T19:52:27.795Z,71.78
2023-03-05T19:54:54.559Z,72.01
2023-03-05T19:57:21.270Z,72.20
2023-03-05T19:59:52.182Z,72.23
2023-03-05T20:02:21.698Z,72.20
2023-03-05T20:04:49.506Z,71.91
2023-03-05T20:07:16.835Z,72.20
2023-03-05T20:09:43.697Z,72.48
2023-03-05T20:12:10.896Z,72.43
2023-03-05T20:14:38.255Z,72.16
2023-03-05T20:17:04.997Z,72.29
2023-03-05T20:19:31.891Z,72.42
2023-03-05T20:21:58.890Z,72.69
2023-03-05T20:24:25.558Z,72.65
2023-03-05T20:26:52.436Z,72.62
2023-03-05T20:29:19.362Z,72.76
2023-03-05T20:31:46.847Z,72.54
2023-03-05T20:34:15.775Z,72.74
2023-03-05T20:36:43.010Z,72.95
2023-03-05T20:39:10.187Z,72.38
2023-03-05T20:41:38.905Z,72.85
2023-03-05T20:44:07.228Z,73.01
2023-03-05T20:46:36.699Z,72.74
2023-03-05T20:49:04.608Z,72.93
2023-03-05T20:51:36.990Z,72.68
2023-03-05T20:54:06.852Z,73.20
2023-03-05T20:56:35.193Z,73.25
2023-03-05T20:59:05.464Z,73.30
2023-03-05T21:01:34.012Z,73.24
2023-03-05T21:04:02.127Z,72.95
2023-03-05T21:06:30.469Z,73.24
2023-03-05T21:08:57.940Z,72.89
2023-03-05T21:11:24.914Z,73.44
2023-03-05T21:13:51.819Z,73.43
2023-03-05T21:16:21.388Z,73.37
2023-03-05T21:18:48.863Z,73.30
2023-03-05T21:21:15.605Z,73.14
2023-03-05T21:23:42.568Z,73.21
2023-03-05T21:26:09.301Z,73.22
2023-03-05T21:28:36.211Z,73.19
2023-03-05T21:31:09.037Z,73.72
2023-03-05T21:33:36.585Z,73.55
2023-03-05T21:36:05.582Z,73.30
2023-03-05T21:38:36.293Z,73.60
2023-03-05T21:41:04.399Z,73.61
2023-03-05T21:43:31.847Z,73.41
2023-03-05T21:46:01.127Z,73.76
2023-03-05T21:48:28.191Z,73.98
2023-03-05T21:50:55.714Z,73.37
2023-03-05T21:53:23.319Z,73.83
2023-03-05T21:56:11.044Z,73.68
2023-03-05T21:58:37.763Z,73.84
2023-03-05T22:01:04.788Z,73.57
2023-03-05T22:03:31.685Z,73.70
2023-03-05T22:05:58.471Z,74.03
2023-03-05T22:08:25.318Z,73.66
2023-03-05T22:10:52.612Z,73.92
2023-03-05T22:13:20.587Z,74.07
2023-03-05T22:15:59.580Z,73.67
2023-03-05T22:18:29.354Z,74.25
2023-03-05T22:20:56.953Z,73.93
2023-03-05T22:23:27.407Z,74.15
2023-03-05T22:25:58.801Z,74.07
2023-03-05T22:28:26.493Z,73.88
2023-03-05T22:30:53.725Z,74.33
2023-03-05T22:33:23.029Z,73.95
2023-03-05T22:35:50.298Z,74.11
2023-03-05T22:38:17.517Z,74.29
2023-03-05T22:40:46.404Z,74.29
2023-03-05T22:43:14.311Z,74.01
2023-03-05T22:45:41.738Z,74.04
2023-03-05T22:48:11.920Z,74.19
2023-03-05T22:50:39.664Z,74.27
2023-03-05T22:53:06.973Z,74.20
2023-03-05T22:55:33.804Z,74.29
2023-03-05T22:58:00.423Z,74.11
2023-03-05T23:00:27.322Z,74.63
2023-03-05T23:02:54.286Z,74.67
2023-03-05T23:05:21.267Z,74.14
2023-03-05T23:07:48.249Z,74.10
2023-03-05T23:10:18.298Z,74.58
2023-03-05T23:12:50.257Z,74.50
2023-03-05T23:15:22.748Z,74.59
2023-03-05T23:17:50.027Z,74.46
2023-03-05T23:20:20.946Z,74.32
2023-03-05T23:22:49.036Z,74.49
2023-03-05T23:25:16.727Z,74.83
2023-03-05T23:27:43.791Z,74.58
2023-03-05T23:30:19.638Z,74.71
2023-03-05T23:32:58.762Z,74.65
2023-03-05T23:35:32.360Z,74.51
2023-03-05T23:38:00.971Z,74.69
2023-03-05T23:40:48.187Z,75.23
2023-03-05T23:43:17.082Z,74.78
2023-03-05T23:45:48.056Z,74.71
2023-03-05T23:48:16.881Z,74.62
2023-03-05T23:50:46.016Z,74.64
2023-03-05T23:53:20.963Z,74.55
2023-03-05T23:55:48.807Z,74.68
2023-03-05T23:58:16.737Z,74.79
